Time;durP1;ratioP1;P1;durP2;ratioP2;P2;SDS_P1;SDS_P2;PMS_P1;PMS_P2;Temp;Humidity;BMP_temperature;BMP_pressure;BME280_temperature;BME280_humidity;BME280_pressure;Samples;Min_cycle;Max_cycle;Signal;HPM_P1;HPM_P2
2021/04/25 00:00:41;;;;;;;8.73;5.00;;;;;;;5.52;62.76;102820.44;5138450;27;20038;-40
2021/04/25 00:03:06;;;;;;;8.17;5.40;;;;;;;5.41;63.35;102816.94;5137640;27;20088;-40
2021/04/25 00:05:32;;;;;;;9.03;5.27;;;;;;;5.41;63.65;102827.66;5138562;27;20019;-40
2021/04/25 00:07:57;;;;;;;8.33;4.93;;;;;;;5.45;63.58;102827.38;5137702;27;20039;-40
2021/04/25 00:10:22;;;;;;;8.13;4.83;;;;;;;5.55;63.10;102825.47;5137672;27;20564;-40
2021/04/25 00:12:48;;;;;;;7.00;5.03;;;;;;;5.52;63.10;102825.81;5137928;27;20102;-40
2021/04/25 00:15:26;;;;;;;10.85;5.82;;;;;;;5.36;63.79;102832.63;5137921;27;20038;-40
2021/04/25 00:17:52;;;;;;;10.18;5.53;;;;;;;5.32;63.60;102827.69;5138289;27;20024;-40
2021/04/25 00:20:19;;;;;;;6.88;4.95;;;;;;;5.33;64.48;102824.06;5138000;27;20042;-40
2021/04/25 00:22:45;;;;;;;9.13;5.22;;;;;;;5.38;64.50;102821.78;5137909;27;20054;-40
2021/04/25 00:25:12;;;;;;;9.98;5.28;;;;;;;5.28;64.98;102827.19;5137591;27;20028;-40
2021/04/25 00:27:38;;;;;;;9.73;4.90;;;;;;;5.20;65.34;102818.16;5137274;27;20039;-40
2021/04/25 00:30:07;;;;;;;8.10;5.28;;;;;;;5.15;65.60;102818.63;5138130;27;20046;-40
2021/04/25 00:32:32;;;;;;;8.20;5.50;;;;;;;5.00;66.60;102817.41;5137087;27;20023;-40
2021/04/25 00:34:58;;;;;;;7.50;4.77;;;;;;;5.16;65.10;102817.63;5138254;27;20071;-40
2021/04/25 00:37:23;;;;;;;8.00;4.97;;;;;;;5.21;65.31;102818.00;5137098;27;20490;-40
2021/04/25 00:39:48;;;;;;;8.80;5.53;;;;;;;5.20;65.36;102810.97;5137727;27;20076;-40
2021/04/25 00:42:15;;;;;;;8.53;5.53;;;;;;;5.22;65.18;102814.38;5137382;27;20447;-40
2021/04/25 00:44:43;;;;;;;8.50;5.55;;;;;;;5.31;65.18;102821.50;5137345;27;20023;-40
2021/04/25 00:47:09;;;;;;;8.43;5.38;;;;;;;5.18;65.26;102810.28;5137158;27;20023;-40
2021/04/25 00:49:34;;;;;;;9.47;5.83;;;;;;;5.30;64.97;102816.28;5137977;27;20132;-40
2021/04/25 00:52:00;;;;;;;8.57;4.80;;;;;;;5.12;65.68;102819.75;5137087;27;20023;-40
2021/04/25 00:54:25;;;;;;;7.28;5.45;;;;;;;5.14;65.45;102814.25;5137555;27;20027;-40
2021/04/25 00:56:53;;;;;;;9.00;5.87;;;;;;;5.18;65.26;102821.00;5136854;27;20031;-40
2021/04/25 00:59:18;;;;;;;11.73;5.75;;;;;;;5.13;65.27;102817.94;5137086;27;20471;-40
2021/04/25 01:01:43;;;;;;;8.73;4.63;;;;;;;5.16;64.72;102828.34;5136687;27;20068;-40
2021/04/25 01:04:09;;;;;;;7.87;5.50;;;;;;;5.08;64.84;102823.72;5137004;27;20027;-40
2021/04/25 01:06:34;;;;;;;8.80;4.93;;;;;;;5.11;65.44;102830.63;5137479;27;20110;-40
2021/04/25 01:08:59;;;;;;;7.63;5.30;;;;;;;5.08;64.98;102826.41;5136534;27;20115;-40
2021/04/25 01:11:25;;;;;;;7.33;4.83;;;;;;;5.15;64.90;102826.66;5137011;27;20106;-40
2021/04/25 01:13:51;;;;;;;8.20;5.55;;;;;;;5.03;64.99;102828.69;5136939;27;20031;-40
2021/04/25 01:16:18;;;;;;;8.38;5.15;;;;;;;4.94;65.60;102826.03;5137163;27;20038;-40
2021/04/25 01:18:43;;;;;;;;;;;;;;;5.13;63.21;102834.84;5136646;27;20459;-40
2021/04/25 01:21:09;;;;;;;8.20;5.03;;;;;;;5.04;65.11;102821.47;5136847;27;19922;-40
2021/04/25 01:23:34;;;;;;;8.83;5.27;;;;;;;4.93;65.56;102818.94;5136568;27;20027;-40
2021/04/25 01:26:00;;;;;;;9.83;6.17;;;;;;;4.83;65.98;102817.19;5136545;27;20098;-40
2021/04/25 01:28:25;;;;;;;11.50;5.97;;;;;;;4.81;66.20;102826.34;5136173;27;20110;-40
2021/04/25 01:30:53;;;;;;;9.80;6.00;;;;;;;4.70;66.61;102821.16;5136674;27;20026;-40
2021/04/25 01:33:18;;;;;;;10.30;6.13;;;;;;;4.70;66.56;102827.34;5136448;27;20030;-40
2021/04/25 01:35:44;;;;;;;12.17;5.80;;;;;;;4.73;66.48;102820.84;5136542;27;20450;-40
2021/04/25 01:38:09;;;;;;;9.10;5.90;;;;;;;4.76;66.46;102826.78;5136414;27;20019;-40
2021/04/25 01:40:34;;;;;;;8.00;5.60;;;;;;;4.77;65.51;102823.09;5136974;27;20024;-40
2021/04/25 01:43:01;;;;;;;9.27;5.40;;;;;;;4.70;66.38;102824.66;5134432;27;20043;-40
2021/04/25 01:45:28;;;;;;;9.27;5.93;;;;;;;4.77;66.16;102828.44;5136962;27;20344;-40
2021/04/25 01:47:56;;;;;;;10.10;5.95;;;;;;;4.76;66.69;102824.09;5136551;27;20366;-40
2021/04/25 01:50:23;;;;;;;8.90;6.15;;;;;;;4.74;66.78;102817.19;5137019;27;20118;-40
2021/04/25 01:52:50;;;;;;;11.77;6.05;;;;;;;4.70;66.91;102822.00;5135882;27;20027;-40
2021/04/25 01:55:17;;;;;;;10.63;6.22;;;;;;;4.77;67.14;102819.56;5136154;27;20378;-40
2021/04/25 01:57:43;;;;;;;12.88;6.60;;;;;;;4.79;66.88;102809.56;5135744;27;20030;-40
2021/04/25 02:00:10;;;;;;;;;;;;;;;4.86;64.68;102816.88;5136344;27;20031;-40
2021/04/25 02:02:36;;;;;;;9.23;5.47;;;;;;;4.73;67.20;102819.00;5135727;27;20374;-40
2021/04/25 02:05:02;;;;;;;8.02;5.28;;;;;;;4.72;67.00;102820.00;5135873;27;20043;-40
2021/04/25 02:07:28;;;;;;;8.65;5.47;;;;;;;4.67;67.51;102816.06;5135604;27;20031;-40
2021/04/25 02:09:54;;;;;;;8.73;5.67;;;;;;;4.74;66.81;102818.03;5136163;27;20035;-40
2021/04/25 02:12:19;;;;;;;12.15;6.03;;;;;;;4.73;66.95;102815.47;5136309;27;20030;-40
2021/04/25 02:14:45;;;;;;;11.07;6.20;;;;;;;4.65;65.81;102819.75;5136046;27;20031;-40
2021/04/25 02:17:10;;;;;;;9.50;5.38;;;;;;;4.65;67.22;102818.91;5135262;27;20573;-40
2021/04/25 02:19:36;;;;;;;8.87;5.77;;;;;;;4.57;67.04;102819.59;5135715;27;20079;-40
2021/04/25 02:22:03;;;;;;;9.38;6.13;;;;;;;4.56;68.03;102819.75;5135038;27;20482;-40
2021/04/25 02:24:28;;;;;;;8.20;5.53;;;;;;;4.54;67.73;102817.22;5135594;27;20178;-40
2021/04/25 02:26:53;;;;;;;10.20;6.07;;;;;;;4.59;66.52;102819.47;5135536;27;20027;-40
2021/04/25 02:29:19;;;;;;;8.03;5.30;;;;;;;4.59;67.18;102824.84;5134553;27;20046;-40
2021/04/25 02:31:44;;;;;;;9.30;5.30;;;;;;;4.51;66.66;102816.66;5135126;27;20475;-40
2021/04/25 02:34:09;;;;;;;8.67;5.43;;;;;;;4.54;66.93;102819.91;5135331;27;20019;-40
2021/04/25 02:36:35;;;;;;;6.83;5.00;;;;;;;4.63;67.35;102826.22;5135770;27;20367;-40
2021/04/25 02:39:00;;;;;;;12.43;5.10;;;;;;;4.67;65.91;102816.06;5134957;27;20126;-40
2021/04/25 02:41:27;;;;;;;9.73;5.30;;;;;;;4.69;65.98;102816.78;5135628;27;20027;-40
2021/04/25 02:43:52;;;;;;;7.60;5.03;;;;;;;4.72;66.39;102821.84;5135414;27;20118;-39
2021/04/25 02:46:18;;;;;;;9.32;4.88;;;;;;;4.60;65.57;102815.81;5134986;27;20054;-40
2021/04/25 02:48:43;;;;;;;8.63;4.43;;;;;;;4.56;65.04;102812.56;5134906;27;20057;-40
2021/04/25 02:51:08;;;;;;;8.33;4.40;;;;;;;4.50;65.17;102810.47;5135082;27;20438;-40
2021/04/25 02:53:34;;;;;;;7.67;4.37;;;;;;;4.46;65.38;102810.88;5134802;27;20024;-40
2021/04/25 02:55:59;;;;;;;7.97;4.47;;;;;;;4.45;65.02;102811.88;5135089;27;20328;-40
2021/04/25 02:58:24;;;;;;;7.37;4.00;;;;;;;4.52;64.59;102813.00;5134605;27;20402;-40
2021/04/25 03:00:50;;;;;;;5.60;3.90;;;;;;;4.49;64.12;102816.81;5134661;27;20031;-40
2021/04/25 03:03:15;;;;;;;7.80;3.73;;;;;;;4.54;64.83;102809.19;5135222;27;20501;-40
2021/04/25 03:05:40;;;;;;;6.70;4.50;;;;;;;4.54;64.09;102805.63;5135114;27;20018;-40
2021/04/25 03:08:06;;;;;;;8.13;3.77;;;;;;;4.50;64.06;102809.63;5134297;27;20466;-40
2021/04/25 03:10:31;;;;;;;6.77;3.53;;;;;;;4.59;64.43;102814.97;5134551;27;20097;-39
2021/04/25 03:12:56;;;;;;;8.33;3.50;;;;;;;4.56;63.53;102814.41;5134438;27;20023;-40
2021/04/25 03:15:22;;;;;;;5.20;3.33;;;;;;;4.52;63.43;102813.00;5135261;27;20031;-39
2021/04/25 03:17:48;;;;;;;8.25;3.85;;;;;;;4.47;63.78;102804.53;5133055;27;20038;-40
2021/04/25 03:20:23;;;;;;;6.50;3.42;;;;;;;4.43;64.66;102813.84;5133087;27;20106;-40
2021/04/25 03:22:48;;;;;;;5.97;3.65;;;;;;;4.37;63.94;102810.75;5134359;27;20027;-40
2021/04/25 03:25:14;;;;;;;7.38;4.18;;;;;;;4.35;63.91;102818.09;5134988;27;20068;-40
2021/04/25 03:27:40;;;;;;;5.90;3.50;;;;;;;4.37;64.26;102812.59;5134761;27;20019;-40
2021/04/25 03:30:08;;;;;;;6.32;3.58;;;;;;;4.34;63.50;102812.84;5134562;27;20114;-40
2021/04/25 03:32:34;;;;;;;8.80;3.90;;;;;;;4.25;63.86;102813.72;5134177;28;20038;-40
2021/04/25 03:35:00;;;;;;;7.57;3.67;;;;;;;4.20;64.18;102811.47;5134048;28;20027;-40
2021/04/25 03:37:26;;;;;;;7.32;3.72;;;;;;;4.21;64.36;102807.81;5133876;28;20035;-40
2021/04/25 03:39:51;;;;;;;6.87;3.63;;;;;;;4.21;64.03;102815.00;5134791;28;20080;-40
2021/04/25 03:42:17;;;;;;;8.07;3.73;;;;;;;4.22;64.25;102811.31;5134157;28;20417;-40
2021/04/25 03:44:42;;;;;;;7.37;3.37;;;;;;;4.09;64.19;102811.59;5134212;28;20073;-40
2021/04/25 03:47:07;;;;;;;9.33;3.37;;;;;;;4.13;64.24;102821.88;5134066;28;20531;-39
2021/04/25 03:49:33;;;;;;;7.43;3.37;;;;;;;4.17;64.00;102819.78;5134397;28;20023;-39
2021/04/25 03:51:58;;;;;;;6.87;3.33;;;;;;;4.11;63.54;102823.03;5134574;28;20023;-40
2021/04/25 03:54:24;;;;;;;5.67;3.00;;;;;;;4.17;63.16;102822.44;5134629;28;20027;-40
2021/04/25 03:56:49;;;;;;;9.70;3.70;;;;;;;4.07;63.08;102822.44;5134874;28;20053;-40
2021/04/25 03:59:14;;;;;;;7.00;3.43;;;;;;;4.09;63.00;102814.25;5133883;28;20043;-40
2021/04/25 04:01:40;;;;;;;7.60;3.47;;;;;;;4.18;63.73;102820.63;5134169;28;20049;-39
2021/04/25 04:04:05;;;;;;;6.13;3.17;;;;;;;4.22;63.55;102814.00;5134060;28;20548;-39
2021/04/25 04:06:30;;;;;;;7.40;3.60;;;;;;;4.22;62.72;102817.53;5134000;28;20372;-39
2021/04/25 04:08:56;;;;;;;9.40;3.60;;;;;;;4.20;62.78;102819.50;5134400;28;20042;-40
2021/04/25 04:11:21;;;;;;;7.63;3.87;;;;;;;4.22;62.91;102820.19;5134163;28;20034;-40
2021/04/25 04:13:47;;;;;;;5.07;3.07;;;;;;;4.18;62.76;102818.78;5134631;28;20038;-40
2021/04/25 04:16:12;;;;;;;8.80;3.70;;;;;;;4.13;62.82;102810.31;5134185;28;20031;-40
2021/04/25 04:18:38;;;;;;;7.45;3.75;;;;;;;4.20;62.21;102821.31;5133469;28;20456;-40
2021/04/25 04:21:03;;;;;;;6.37;3.13;;;;;;;4.21;63.06;102820.34;5133911;28;20038;-40
2021/04/25 04:23:29;;;;;;;7.27;3.30;;;;;;;4.28;63.32;102824.97;5132673;28;20039;-39
2021/04/25 04:25:54;;;;;;;6.47;2.57;;;;;;;4.34;62.63;102818.22;5133789;28;20336;-40
2021/04/25 04:28:19;;;;;;;5.67;2.87;;;;;;;4.32;62.35;102813.00;5134950;27;20067;-40
2021/04/25 04:30:45;;;;;;;7.83;3.37;;;;;;;4.28;62.03;102816.94;5137611;27;20026;-40
2021/04/25 04:33:10;;;;;;;6.43;3.27;;;;;;;4.28;62.37;102822.31;5137252;27;20030;-40
2021/04/25 04:35:36;;;;;;;7.67;3.13;;;;;;;4.28;62.92;102819.63;5137785;27;20042;-40
2021/04/25 04:38:01;;;;;;;10.50;3.80;;;;;;;4.27;62.72;102804.56;5137326;27;20028;-40
2021/04/25 04:40:27;;;;;;;4.93;2.73;;;;;;;4.29;62.46;102812.44;5137424;27;20379;-40
2021/04/25 04:42:53;;;;;;;7.70;3.40;;;;;;;4.25;62.47;102811.91;5137554;27;20053;-40
2021/04/25 04:45:18;;;;;;;6.37;3.00;;;;;;;4.33;62.88;102808.50;5137564;27;20023;-40
2021/04/25 04:47:45;;;;;;;6.33;3.10;;;;;;;4.38;63.22;102817.78;5137529;27;20109;-40
2021/04/25 04:50:12;;;;;;;8.38;3.28;;;;;;;4.36;62.79;102810.91;5137521;27;20031;-39
2021/04/25 04:52:38;;;;;;;8.70;4.00;;;;;;;4.43;63.11;102808.47;5137048;27;20486;-39
2021/04/25 04:55:04;;;;;;;6.50;3.30;;;;;;;4.43;62.54;102814.69;5137467;27;20027;-40
2021/04/25 04:57:29;;;;;;;8.13;3.90;;;;;;;4.44;62.24;102812.84;5136968;27;20027;-39
2021/04/25 04:59:55;;;;;;;7.97;3.57;;;;;;;4.43;62.41;102813.84;5136687;27;20023;-39
2021/04/25 05:02:20;;;;;;;5.90;3.40;;;;;;;4.50;62.39;102815.81;5137288;27;20046;-40
2021/04/25 05:04:46;;;;;;;5.87;2.90;;;;;;;4.54;62.31;102816.34;5136711;27;20099;-40
2021/04/25 05:07:11;;;;;;;6.20;3.47;;;;;;;4.56;61.52;102817.06;5136947;27;20031;-39
2021/04/25 05:09:37;;;;;;;3.97;2.75;;;;;;;4.61;61.29;102820.16;5136691;27;20067;-39
2021/04/25 05:12:02;;;;;;;8.73;3.42;;;;;;;4.56;61.27;102825.13;5136618;27;20031;-40
2021/04/25 05:14:28;;;;;;;6.97;3.40;;;;;;;4.64;61.98;102831.47;5137146;27;20107;-39
2021/04/25 05:16:53;;;;;;;7.77;2.87;;;;;;;4.64;61.04;102828.78;5136765;27;20027;-40
2021/04/25 05:19:18;;;;;;;5.93;2.83;;;;;;;4.67;61.79;102835.66;5136499;27;20019;-39
2021/04/25 05:21:44;;;;;;;9.57;4.33;;;;;;;4.72;61.18;102838.75;5136487;27;20513;-39
2021/04/25 05:24:10;;;;;;;6.43;2.50;;;;;;;4.77;61.30;102828.44;5136447;27;20094;-40
2021/04/25 05:26:36;;;;;;;6.50;2.80;;;;;;;4.72;61.41;102836.09;5137094;27;20363;-40
2021/04/25 05:29:02;;;;;;;7.38;3.17;;;;;;;4.77;61.82;102831.13;5136289;27;20023;-39
2021/04/25 05:31:27;;;;;;;7.43;3.23;;;;;;;4.78;60.88;102818.56;5136460;27;20027;-40
2021/04/25 05:33:52;;;;;;;8.03;3.27;;;;;;;4.83;60.43;102837.75;5136107;27;20260;-39
2021/04/25 05:36:18;;;;;;;6.57;2.90;;;;;;;4.94;61.14;102834.06;5136681;27;20057;-40
2021/04/25 05:38:43;;;;;;;14.00;4.37;;;;;;;4.88;61.08;102835.47;5136193;27;20467;-40
2021/04/25 05:41:08;;;;;;;4.90;3.07;;;;;;;4.95;60.89;102839.28;5135472;27;20360;-40
2021/04/25 05:43:34;;;;;;;5.57;2.73;;;;;;;4.87;60.52;102845.34;5136151;27;20474;-40
2021/04/25 05:45:59;;;;;;;7.93;3.23;;;;;;;4.97;60.54;102845.34;5136414;27;20027;-40
2021/04/25 05:48:24;;;;;;;5.23;2.53;;;;;;;5.10;60.35;102842.34;5135815;27;20038;-40
2021/04/25 05:50:50;;;;;;;6.20;3.10;;;;;;;5.09;59.98;102843.34;5136382;27;20027;-40
2021/04/25 05:53:15;;;;;;;5.43;2.70;;;;;;;5.08;60.41;102842.50;5136215;27;20031;-40
2021/04/25 05:55:42;;;;;;;5.70;2.53;;;;;;;5.11;59.43;102857.44;5136489;27;20066;-39
2021/04/25 05:58:07;;;;;;;9.40;2.72;;;;;;;5.01;60.44;102852.09;5135712;27;20147;-40
2021/04/25 06:00:33;;;;;;;5.00;2.27;;;;;;;5.07;58.78;102869.44;5136068;27;20027;-39
2021/04/25 06:02:59;;;;;;;5.38;2.25;;;;;;;5.06;58.94;102860.56;5135988;27;20039;-40
2021/04/25 06:05:24;;;;;;;6.77;2.53;;;;;;;5.04;58.87;102865.22;5135572;27;20487;-40
2021/04/25 06:07:51;;;;;;;4.43;2.20;;;;;;;5.14;59.03;102862.53;5135720;27;20056;-39
2021/04/25 06:10:18;;;;;;;5.50;2.38;;;;;;;5.10;58.38;102856.59;5135711;27;20334;-39
2021/04/25 06:12:47;;;;;;;5.60;2.17;;;;;;;5.02;57.96;102872.56;5135359;27;20031;-39
2021/04/25 06:15:13;;;;;;;4.13;1.90;;;;;;;5.01;57.30;102872.72;5135554;27;20035;-40
2021/04/25 06:17:39;;;;;;;5.97;2.25;;;;;;;5.02;57.20;102869.88;5135424;27;20031;-40
2021/04/25 06:20:04;;;;;;;4.67;2.00;;;;;;;5.06;57.28;102873.13;5136080;27;20056;-40
2021/04/25 06:22:30;;;;;;;5.93;2.05;;;;;;;5.06;57.10;102865.91;5135478;27;20046;-40
2021/04/25 06:24:55;;;;;;;7.03;1.63;;;;;;;5.18;57.18;102869.28;5135210;27;20027;-40
2021/04/25 06:27:22;;;;;;;7.60;1.87;;;;;;;5.21;57.32;102863.63;5135373;27;20023;-39
2021/04/25 06:29:47;;;;;;;;;;;;;;;5.34;56.85;102874.03;5136591;27;20031;-40
2021/04/25 06:32:12;;;;;;;8.67;2.20;;;;;;;5.35;57.20;102873.88;5135011;27;19914;-40
2021/04/25 06:34:37;;;;;;;5.43;1.73;;;;;;;5.40;57.26;102876.97;5135272;27;20110;-39
2021/04/25 06:37:03;;;;;;;4.73;1.70;;;;;;;5.46;56.21;102877.34;5135958;27;20106;-40
2021/04/25 06:39:28;;;;;;;4.27;1.70;;;;;;;5.51;56.67;102878.59;5135148;27;20034;-40
2021/04/25 06:41:53;;;;;;;6.77;2.10;;;;;;;5.55;56.26;102885.38;5135094;27;20058;-40
2021/04/25 06:44:19;;;;;;;4.73;1.70;;;;;;;5.56;55.77;102895.13;5134491;27;20042;-40
2021/04/25 06:46:44;;;;;;;5.60;1.90;;;;;;;5.41;56.56;102892.06;5135760;27;20027;-39
2021/04/25 06:49:10;;;;;;;6.37;2.07;;;;;;;5.38;56.78;102892.38;5135156;27;20027;-39
2021/04/25 06:51:35;;;;;;;5.17;1.60;;;;;;;5.49;56.33;102895.84;5135252;27;20050;-39
2021/04/25 06:54:00;;;;;;;5.63;1.80;;;;;;;5.49;56.74;102887.81;5135215;27;20023;-39
2021/04/25 06:56:26;;;;;;;4.13;1.53;;;;;;;5.48;56.80;102899.53;5134922;27;20521;-39
2021/04/25 06:58:51;;;;;;;5.77;1.67;;;;;;;5.51;57.05;102894.69;5134709;27;20030;-40
2021/04/25 07:01:16;;;;;;;9.50;2.23;;;;;;;5.40;56.57;102889.53;5135117;27;20019;-40
2021/04/25 07:03:42;;;;;;;7.00;2.38;;;;;;;5.35;57.44;102895.34;5135299;27;20139;-40
2021/04/25 07:06:08;;;;;;;7.88;1.95;;;;;;;5.59;57.19;102894.81;5135254;27;20063;-40
2021/04/25 07:08:33;;;;;;;5.07;2.15;;;;;;;5.73;56.49;102896.16;5134866;27;20374;-40
2021/04/25 07:10:59;;;;;;;5.20;2.23;;;;;;;5.86;56.61;102896.69;5135444;27;20080;-39
2021/04/25 07:13:24;;;;;;;7.88;3.10;;;;;;;5.79;56.25;102898.25;5134494;27;20027;-39
2021/04/25 07:15:50;;;;;;;6.60;1.97;;;;;;;5.89;56.71;102896.34;5134984;27;20027;-40
2021/04/25 07:18:15;;;;;;;6.77;1.63;;;;;;;5.93;55.28;102891.56;5134326;27;20054;-40
2021/04/25 07:20:41;;;;;;;6.77;1.57;;;;;;;6.02;55.48;102892.50;5134352;27;20064;-40
2021/04/25 07:23:06;;;;;;;5.30;1.57;;;;;;;6.07;55.36;102892.91;5134026;27;20027;-40
2021/04/25 07:25:32;;;;;;;4.33;1.83;;;;;;;6.09;55.46;102890.91;5134427;27;20030;-40
2021/04/25 07:27:58;;;;;;;4.90;1.63;;;;;;;6.22;55.13;102896.75;5134575;27;20070;-40
2021/04/25 07:30:24;;;;;;;5.35;2.05;;;;;;;6.28;54.95;102889.94;5134735;27;20027;-40
2021/04/25 07:32:50;;;;;;;6.40;2.38;;;;;;;6.28;54.76;102890.75;5134133;28;20027;-39
2021/04/25 07:35:16;;;;;;;8.40;2.22;;;;;;;6.24;54.77;102891.22;5133925;28;20031;-39
2021/04/25 07:37:42;;;;;;;5.55;1.95;;;;;;;6.36;56.41;102888.16;5133724;28;20041;-39
2021/04/25 07:40:09;;;;;;;6.60;1.67;;;;;;;6.43;55.29;102883.00;5134848;28;20370;-39
2021/04/25 07:42:36;;;;;;;6.95;1.90;;;;;;;6.48;54.30;102882.56;5133967;28;20053;-39
2021/04/25 07:45:03;;;;;;;5.18;1.80;;;;;;;6.64;54.25;102874.66;5134609;28;20110;-39
2021/04/25 07:47:29;;;;;;;6.68;2.30;;;;;;;6.72;54.08;102888.13;5133978;28;20032;-40
2021/04/25 07:49:54;;;;;;;6.17;2.07;;;;;;;6.80;53.84;102887.38;5134942;28;20032;-40
2021/04/25 07:52:19;;;;;;;6.17;1.73;;;;;;;6.77;54.59;102884.97;5134294;28;20052;-40
2021/04/25 07:54:45;;;;;;;9.90;2.40;;;;;;;6.61;53.45;102891.09;5134942;28;20030;-40
2021/04/25 07:57:10;;;;;;;4.47;1.90;;;;;;;6.72;53.58;102894.34;5133891;28;20027;-39
2021/04/25 07:59:35;;;;;;;8.60;2.10;;;;;;;6.78;53.22;102887.50;5134058;28;20125;-40
2021/04/25 08:02:01;;;;;;;7.10;2.17;;;;;;;6.55;52.78;102895.22;5134150;27;20070;-40
2021/04/25 08:04:27;;;;;;;7.30;2.20;;;;;;;6.58;53.29;102897.59;5137516;27;20023;-40
2021/04/25 08:06:52;;;;;;;10.00;2.88;;;;;;;6.75;53.53;102879.78;5138057;27;20027;-40
2021/04/25 08:09:18;;;;;;;3.70;1.60;;;;;;;6.86;52.59;102884.06;5138098;27;20031;-40
2021/04/25 08:11:43;;;;;;;7.43;2.58;;;;;;;6.99;52.62;102886.34;5137757;27;20058;-39
2021/04/25 08:14:09;;;;;;;6.47;2.50;;;;;;;7.06;52.17;102884.69;5137753;27;20058;-40
2021/04/25 08:16:34;;;;;;;8.10;2.30;;;;;;;7.15;52.93;102881.91;5137987;27;20423;-40
2021/04/25 08:18:59;;;;;;;6.83;2.30;;;;;;;7.40;52.99;102882.03;5137785;27;20034;-40
2021/04/25 08:21:26;;;;;;;6.77;2.30;;;;;;;7.39;52.10;102881.19;5138144;27;20015;-39
2021/04/25 08:23:52;;;;;;;7.30;2.33;;;;;;;7.38;50.98;102876.81;5138005;27;20038;-40
2021/04/25 08:26:17;;;;;;;6.53;1.93;;;;;;;7.37;51.35;102877.84;5138567;27;20024;-40
2021/04/25 08:28:42;;;;;;;7.73;1.87;;;;;;;7.71;51.86;102876.94;5135929;27;20050;-40
2021/04/25 08:31:08;;;;;;;6.47;2.00;;;;;;;8.11;50.61;102875.41;5137643;27;20026;-40
2021/04/25 08:33:33;;;;;;;6.10;2.10;;;;;;;8.20;49.56;102875.25;5137568;27;20023;-40
2021/04/25 08:35:58;;;;;;;4.27;1.90;;;;;;;8.12;50.49;102875.25;5137270;27;20027;-39
2021/04/25 08:38:23;;;;;;;6.23;2.10;;;;;;;8.15;50.18;102868.66;5137058;27;20023;-40
2021/04/25 08:40:49;;;;;;;5.23;1.80;;;;;;;8.07;49.24;102874.06;5137718;27;20030;-39
2021/04/25 08:43:14;;;;;;;5.80;2.10;;;;;;;7.98;49.36;102881.25;5137619;27;20027;-39
2021/04/25 08:45:43;;;;;;;6.65;1.90;;;;;;;7.90;50.13;102871.28;5137547;27;20367;-39
2021/04/25 08:48:11;;;;;;;6.50;1.98;;;;;;;7.90;50.04;102873.16;5136911;27;20122;-39
2021/04/25 08:50:37;;;;;;;6.95;2.03;;;;;;;7.89;50.10;102868.78;5137499;27;20034;-38
2021/04/25 08:53:03;;;;;;;5.57;1.83;;;;;;;7.67;50.18;102873.75;5137260;27;20019;-39
2021/04/25 08:55:29;;;;;;;4.68;1.92;;;;;;;7.51;50.85;102880.91;5137318;27;20028;-39
2021/04/25 08:57:55;;;;;;;6.13;2.20;;;;;;;7.54;51.06;102875.22;5137360;27;20027;-39
2021/04/25 09:00:20;;;;;;;6.33;2.00;;;;;;;7.47;50.55;102870.47;5136964;27;20027;-39
2021/04/25 09:02:46;;;;;;;6.57;2.00;;;;;;;7.67;50.56;102872.91;5137092;27;20375;-39
2021/04/25 09:05:12;;;;;;;4.60;1.97;;;;;;;7.57;50.54;102867.66;5137006;27;20031;-39
2021/04/25 09:07:51;;;;;;;4.38;1.75;;;;;;;7.64;52.05;102873.22;5136789;27;20272;-39
2021/04/25 09:10:17;;;;;;;5.05;1.88;;;;;;;8.02;51.25;102876.41;5136607;27;20098;-40
2021/04/25 09:12:45;;;;;;;3.95;1.58;;;;;;;8.39;50.28;102868.72;5136792;27;20110;-39
2021/04/25 09:15:10;;;;;;;4.95;1.48;;;;;;;8.46;48.87;102867.06;5137249;27;20035;-41
2021/04/25 09:17:54;;;;;;;4.73;1.57;;;;;;;8.62;48.93;102868.06;5136400;27;20030;-39
2021/04/25 09:20:30;;;;;;;6.63;1.70;;;;;;;8.61;49.20;102871.78;5137475;27;20101;-40
2021/04/25 09:22:55;;;;;;;8.75;1.90;;;;;;;8.49;48.66;102866.72;5136395;27;20042;-39
2021/04/25 09:25:21;;;;;;;5.83;1.77;;;;;;;8.76;48.99;102870.09;5136801;27;20098;-39
2021/04/25 09:27:48;;;;;;;8.27;1.97;;;;;;;8.73;47.19;102868.56;5136197;27;20027;-39
2021/04/25 09:30:34;;;;;;;6.72;1.55;;;;;;;9.07;47.75;102861.28;5134441;27;20448;-39
2021/04/25 09:33:04;;;;;;;7.63;1.92;;;;;;;9.39;47.53;102855.78;5135704;27;20043;-39
2021/04/25 09:35:30;;;;;;;7.88;1.80;;;;;;;9.27;46.59;102857.16;5136528;27;20097;-39
2021/04/25 09:37:56;;;;;;;;;;;;;;;9.61;45.33;102858.75;5136574;27;20027;-40
2021/04/25 09:40:26;;;;;;;3.83;1.50;;;;;;;9.58;46.17;102862.66;5136482;27;19964;-40
2021/04/25 09:43:02;;;;;;;4.97;1.50;;;;;;;9.66;47.65;102854.53;5136590;27;20023;-40
2021/04/25 09:45:30;;;;;;;7.28;1.85;;;;;;;9.29;45.89;102849.75;5135690;27;20505;-39
2021/04/25 09:47:58;;;;;;;5.90;1.77;;;;;;;9.02;46.85;102859.09;5136046;27;20031;-39
2021/04/25 09:50:23;;;;;;;5.85;1.55;;;;;;;8.74;47.79;102861.34;5136238;27;20027;-40
2021/04/25 09:52:50;;;;;;;6.90;1.63;;;;;;;8.70;47.20;102854.59;5136439;27;20114;-38
2021/04/25 09:55:27;;;;;;;7.00;1.60;;;;;;;8.88;48.21;102857.09;5136353;27;20499;-39
2021/04/25 09:57:56;;;;;;;6.50;1.80;;;;;;;8.96;47.06;102852.53;5136648;27;20054;-38
2021/04/25 10:00:22;;;;;;;6.22;1.80;;;;;;;9.11;46.63;102849.13;5136124;27;20054;-38
2021/04/25 10:03:12;;;;;;;7.57;1.73;;;;;;;9.21;46.96;102844.38;5136064;27;20450;-38
2021/04/25 10:05:39;;;;;;;5.97;1.55;;;;;;;9.65;46.82;102854.66;5136613;27;20524;-39
2021/04/25 10:08:05;;;;;;;7.30;1.90;;;;;;;9.94;47.25;102844.03;5135704;27;20027;-38
2021/04/25 10:10:32;;;;;;;6.93;1.70;;;;;;;10.06;45.18;102848.03;5136034;27;20019;-39
2021/04/25 10:12:58;;;;;;;7.97;1.50;;;;;;;10.12;45.79;102841.06;5135385;27;20027;-41
2021/04/25 10:15:24;;;;;;;4.65;1.48;;;;;;;10.49;44.73;102840.31;5135668;27;20027;-41
2021/04/25 10:17:54;;;;;;;8.70;1.83;;;;;;;10.74;44.49;102834.69;5135822;27;20111;-40
2021/04/25 10:20:21;;;;;;;6.90;1.60;;;;;;;10.72;44.00;102847.56;5135792;27;20027;-40
2021/04/25 10:22:48;;;;;;;5.13;1.90;;;;;;;10.22;44.11;102841.66;5135119;27;20123;-40
2021/04/25 10:25:17;;;;;;;5.97;1.77;;;;;;;9.87;44.70;102837.69;5135253;27;20126;-40
2021/04/25 10:27:55;;;;;;;5.55;1.90;;;;;;;9.87;45.38;102840.38;5134954;27;20482;-40
2021/04/25 10:30:22;;;;;;;6.45;1.88;;;;;;;9.77;46.51;102831.66;5135395;27;20073;-40
2021/04/25 10:32:54;;;;;;;5.40;1.60;;;;;;;9.81;45.11;102835.69;5135442;27;20118;-39
2021/04/25 10:35:22;;;;;;;6.70;1.70;;;;;;;9.89;46.16;102830.22;5135871;27;20068;-40
2021/04/25 10:37:49;;;;;;;6.43;1.80;;;;;;;9.63;46.21;102835.94;5135044;27;20072;-40
2021/04/25 10:40:26;;;;;;;9.27;2.28;;;;;;;9.47;46.47;102826.06;5135362;27;20390;-39
2021/04/25 10:42:57;;;;;;;7.00;1.48;;;;;;;9.70;46.91;102820.69;5135374;27;20357;-40
2021/04/25 10:45:30;;;;;;;7.28;1.67;;;;;;;9.73;46.99;102820.38;5135288;27;20023;-40
2021/04/25 10:48:17;;;;;;;6.22;2.15;;;;;;;9.92;45.84;102816.38;5135019;27;20079;-39
2021/04/25 10:50:44;;;;;;;4.68;1.40;;;;;;;10.48;45.03;102808.03;5135832;27;20423;-39
2021/04/25 10:53:26;;;;;;;6.82;1.83;;;;;;;10.74;44.71;102796.81;5135175;27;20027;-39
2021/04/25 10:56:12;;;;;;;5.97;1.90;;;;;;;10.66;45.00;102808.53;5135756;27;20417;-40
2021/04/25 10:58:37;;;;;;;3.35;1.40;;;;;;;10.73;43.36;102817.59;5135291;27;20035;-39
2021/04/25 11:01:03;;;;;;;3.80;1.25;;;;;;;10.63;42.63;102805.34;5134802;27;20031;-44
2021/04/25 11:03:38;;;;;;;7.23;1.57;;;;;;;10.61;43.56;102802.00;5135091;27;20039;-40
2021/04/25 11:06:04;;;;;;;6.00;1.50;;;;;;;10.82;45.40;102796.72;5134972;27;20030;-38
2021/04/25 11:08:29;;;;;;;7.05;1.80;;;;;;;10.76;43.83;102794.75;5134420;27;20035;-40
2021/04/25 11:11:07;;;;;;;4.30;1.40;;;;;;;10.87;43.55;102779.91;5134885;27;20031;-40
2021/04/25 11:13:32;;;;;;;4.50;1.33;;;;;;;11.03;44.04;102783.31;5134168;27;20463;-40
2021/04/25 11:16:00;;;;;;;9.33;2.00;;;;;;;11.12;42.60;102777.78;5134496;27;20106;-40
2021/04/25 11:18:50;;;;;;;5.50;1.48;;;;;;;11.19;43.90;102773.28;5133913;27;20475;-40
2021/04/25 11:24:02;;;;;;;5.75;1.40;;;;;;;11.28;41.08;102780.28;5134645;27;20110;-40
2021/04/25 11:26:33;;;;;;;5.68;1.33;;;;;;;11.29;42.35;102773.84;5134893;27;20053;-40
2021/04/25 11:29:01;;;;;;;5.63;1.70;;;;;;;11.56;41.25;102770.41;5134396;27;20476;-40
2021/04/25 11:34:33;;;;;;;7.65;1.58;;;;;;;11.38;41.22;102782.72;5134220;27;20023;-40
2021/04/25 11:37:21;;;;;;;5.53;1.40;;;;;;;11.39;43.13;102779.81;5091054;28;20036;-40